createdAt,value
2019-04-28T00:01:34.996Z,10.30
2019-04-28T00:04:15.273Z,9.43
2019-04-28T00:06:55.548Z,9.73
2019-04-28T00:09:36.380Z,10.93
2019-04-28T00:12:17.241Z,10.23
2019-04-28T00:14:58.421Z,10.50
2019-04-28T00:17:39.293Z,9.90
2019-04-28T00:20:40.809Z,11.07
2019-04-28T00:23:42.248Z,10.63
2019-04-28T00:26:41.945Z,10.60
2019-04-28T00:29:22.437Z,10.70
2019-04-28T00:32:03.294Z,10.67
2019-04-28T00:34:44.061Z,10.47
2019-04-28T00:37:29.349Z,11.17
2019-04-28T00:40:11.107Z,11.43
2019-04-28T00:42:51.553Z,11.50
2019-04-28T00:45:32.627Z,12.20
2019-04-28T00:48:13.736Z,12.30
2019-04-28T00:50:54.297Z,12.00
2019-04-28T00:53:35.244Z,12.33
2019-04-28T00:56:16.053Z,10.80
2019-04-28T00:58:56.855Z,12.27
2019-04-28T01:01:40.711Z,11.50
2019-04-28T01:04:21.960Z,11.53
2019-04-28T01:07:03.406Z,12.57
2019-04-28T01:09:43.649Z,10.90
2019-04-28T01:12:24.459Z,11.63
2019-04-28T01:15:05.465Z,11.73
2019-04-28T01:18:05.431Z,11.33
2019-04-28T01:20:45.776Z,13.33
2019-04-28T01:23:26.355Z,12.30
2019-04-28T01:26:07.268Z,12.23
2019-04-28T01:28:49.588Z,11.50
2019-04-28T01:31:35.377Z,11.70
2019-04-28T01:37:09.764Z,13.23
2019-04-28T01:39:50.415Z,13.03
2019-04-28T01:42:30.945Z,12.77
2019-04-28T01:45:11.853Z,12.93
2019-04-28T01:47:52.595Z,13.20
2019-04-28T01:50:32.980Z,13.00
2019-04-28T01:53:13.790Z,13.27
2019-04-28T01:55:54.601Z,12.77
2019-04-28T01:58:35.124Z,12.90
2019-04-28T02:01:15.675Z,14.27
2019-04-28T02:03:56.121Z,13.43
2019-04-28T02:06:36.652Z,13.10
2019-04-28T02:09:17.334Z,13.30
2019-04-28T02:11:58.089Z,13.40
2019-04-28T02:14:40.393Z,14.00
2019-04-28T02:17:21.706Z,13.97
2019-04-28T02:20:02.436Z,14.13
2019-04-28T02:22:44.507Z,13.23
2019-04-28T02:25:25.488Z,14.37
2019-04-28T02:28:06.168Z,13.53
2019-04-28T02:30:50.308Z,14.83
2019-04-28T02:33:31.275Z,14.73
2019-04-28T02:36:12.422Z,14.27
2019-04-28T02:38:53.754Z,14.90
2019-04-28T02:41:34.297Z,14.27
2019-04-28T02:44:15.134Z,14.47
2019-04-28T02:46:55.726Z,14.77
2019-04-28T02:49:40.334Z,14.23
2019-04-28T02:52:41.205Z,15.37
2019-04-28T02:55:21.783Z,14.50
2019-04-28T02:58:02.391Z,15.77
2019-04-28T03:01:00.389Z,15.10
2019-04-28T03:03:25.936Z,14.77
2019-04-28T03:06:07.062Z,15.53
2019-04-28T03:08:50.406Z,15.10
2019-04-28T03:11:31.438Z,15.33
2019-04-28T03:14:12.194Z,14.27
2019-04-28T03:16:52.859Z,15.43
2019-04-28T03:19:34.176Z,15.70
2019-04-28T03:22:14.552Z,15.33
2019-04-28T03:24:56.638Z,14.67
2019-04-28T03:27:42.021Z,16.23
2019-04-28T03:30:43.844Z,16.20
2019-04-28T03:33:26.631Z,15.10
2019-04-28T03:36:08.238Z,15.70
2019-04-28T03:38:50.978Z,15.60
2019-04-28T03:41:32.677Z,16.03
2019-04-28T03:44:13.133Z,15.57
2019-04-28T03:46:55.320Z,15.67
2019-04-28T03:49:36.340Z,15.10
2019-04-28T03:52:17.203Z,15.63
2019-04-28T03:55:00.364Z,16.13
2019-04-28T03:57:41.278Z,15.73
2019-04-28T04:00:22.222Z,15.60
2019-04-28T04:03:02.941Z,15.53
2019-04-28T04:05:43.832Z,15.20
2019-04-28T04:08:24.465Z,16.50
2019-04-28T04:11:06.637Z,15.80
2019-04-28T04:13:52.684Z,16.20
2019-04-28T04:17:00.176Z,16.10
2019-04-28T04:19:50.240Z,14.57
2019-04-28T04:22:37.480Z,15.70
2019-04-28T04:25:25.249Z,16.37
2019-04-28T04:28:12.981Z,15.50
2019-04-28T04:31:03.152Z,15.83
2019-04-28T04:33:50.743Z,15.17
2019-04-28T04:36:41.693Z,16.53
2019-04-28T04:39:30.316Z,15.90
2019-04-28T04:42:20.437Z,15.77
2019-04-28T04:45:10.526Z,15.87
2019-04-28T04:48:00.538Z,14.80
2019-04-28T04:50:47.813Z,15.93
2019-04-28T04:53:30.678Z,15.17
2019-04-28T04:56:11.091Z,15.40
2019-04-28T04:58:51.539Z,14.23
2019-04-28T05:01:51.753Z,14.40
2019-04-28T05:04:51.233Z,15.33
2019-04-28T05:07:31.504Z,14.80
2019-04-28T05:10:12.020Z,15.80
2019-04-28T05:12:52.512Z,15.53
2019-04-28T05:15:33.353Z,15.30
2019-04-28T05:18:14.016Z,16.73
2019-04-28T05:20:55.201Z,15.53
2019-04-28T05:23:42.802Z,14.50
2019-04-28T05:26:30.541Z,14.87
2019-04-28T05:29:21.839Z,14.97
2019-04-28T05:32:07.780Z,14.87
2019-04-28T05:34:55.800Z,14.90
2019-04-28T05:37:43.545Z,15.00
2019-04-28T05:40:31.312Z,14.80
2019-04-28T05:43:19.595Z,15.70
2019-04-28T05:46:10.500Z,15.27
2019-04-28T05:49:17.196Z,15.30
2019-04-28T06:01:10.230Z,14.87
2019-04-28T06:03:58.096Z,15.67
2019-04-28T06:10:00.262Z,15.07
2019-04-28T06:12:49.618Z,15.50
2019-04-28T06:15:37.489Z,14.47
2019-04-28T06:18:26.963Z,14.93
2019-04-28T06:24:06.382Z,14.93
2019-04-28T06:26:47.370Z,14.50
2019-04-28T06:29:28.372Z,13.67
2019-04-28T06:32:09.113Z,13.77
2019-04-28T06:34:49.902Z,15.07
2019-04-28T06:37:30.683Z,14.23
2019-04-28T06:40:11.444Z,14.80
2019-04-28T06:42:52.217Z,14.40
2019-04-28T06:45:33.208Z,13.70
2019-04-28T06:48:13.949Z,14.40
2019-04-28T06:50:55.141Z,15.47
2019-04-28T06:53:23.573Z,13.87
2019-04-28T06:56:11.352Z,14.27
2019-04-28T06:58:59.559Z,13.57
2019-04-28T07:01:29.336Z,13.60
2019-04-28T07:04:17.337Z,13.57
2019-04-28T07:07:05.436Z,14.00
2019-04-28T07:09:53.208Z,14.03
2019-04-28T07:12:40.938Z,13.93
2019-04-28T07:15:28.942Z,13.00
2019-04-28T07:18:16.717Z,14.63
2019-04-28T07:23:53.640Z,12.77
2019-04-28T07:26:41.385Z,13.53
2019-04-28T07:29:29.161Z,11.87
2019-04-28T07:32:16.910Z,11.83
2019-04-28T07:35:25.396Z,12.63
2019-04-28T07:38:13.155Z,12.33
2019-04-28T07:41:00.892Z,12.43
2019-04-28T07:43:48.650Z,12.70
2019-04-28T07:46:36.388Z,13.93
2019-04-28T07:49:24.161Z,13.67
2019-04-28T07:52:31.084Z,14.00
2019-04-28T07:55:11.491Z,13.60
2019-04-28T07:57:52.149Z,12.50
2019-04-28T08:00:32.820Z,13.80
2019-04-28T08:03:13.736Z,15.10
2019-04-28T08:05:54.465Z,14.70
2019-04-28T08:08:35.208Z,13.07
2019-04-28T08:11:15.948Z,12.63
2019-04-28T08:13:56.936Z,12.67
2019-04-28T08:16:38.025Z,14.07
2019-04-28T08:19:18.840Z,12.60
2019-04-28T08:21:59.549Z,13.53
2019-04-28T08:24:40.212Z,14.00
2019-04-28T08:27:20.881Z,14.07
2019-04-28T08:30:01.717Z,14.37
2019-04-28T08:32:47.158Z,15.77
2019-04-28T08:35:28.043Z,15.83
2019-04-28T08:38:08.661Z,15.67
2019-04-28T08:40:49.408Z,16.70
2019-04-28T08:43:30.306Z,17.27
2019-04-28T08:46:11.205Z,15.13
2019-04-28T08:48:51.613Z,17.13
2019-04-28T08:51:32.157Z,16.47
2019-04-28T08:54:12.865Z,16.73
2019-04-28T08:56:53.529Z,17.60
2019-04-28T08:59:34.427Z,18.37
2019-04-28T09:02:15.458Z,17.87
2019-04-28T09:04:56.168Z,16.13
2019-04-28T09:07:36.876Z,18.03
2019-04-28T09:10:17.516Z,18.63
2019-04-28T09:12:58.521Z,19.27
2019-04-28T09:15:39.380Z,16.83
2019-04-28T09:18:19.899Z,17.90
2019-04-28T09:21:00.618Z,20.37
2019-04-28T09:23:41.618Z,19.00
2019-04-28T09:26:22.029Z,20.80
2019-04-28T09:29:02.742Z,15.27
2019-04-28T09:31:43.158Z,18.57
2019-04-28T09:34:28.374Z,18.17
2019-04-28T09:37:06.708Z,17.73
2019-04-28T09:39:49.278Z,17.27
2019-04-28T09:42:31.832Z,18.10
2019-04-28T09:48:19.471Z,15.00
2019-04-28T09:51:00.336Z,12.87
2019-04-28T09:53:41.221Z,14.00
2019-04-28T09:56:21.957Z,12.93
2019-04-28T09:59:02.872Z,12.83
2019-04-28T10:01:43.521Z,11.50
2019-04-28T10:04:24.118Z,13.57
2019-04-28T10:07:04.656Z,14.33
2019-04-28T10:09:45.638Z,12.70
2019-04-28T10:12:27.469Z,13.50
2019-04-28T10:15:08.012Z,8.90
2019-04-28T10:17:48.778Z,11.10
2019-04-28T10:20:29.439Z,9.30
2019-04-28T10:23:10.265Z,10.30
2019-04-28T10:25:51.179Z,10.27
2019-04-28T10:28:31.747Z,10.80
2019-04-28T10:31:13.502Z,8.40
2019-04-28T10:33:56.302Z,8.03
2019-04-28T10:36:37.439Z,6.93
2019-04-28T10:42:25.613Z,6.57
2019-04-28T10:45:07.890Z,6.63
2019-04-28T10:47:48.144Z,6.93
2019-04-28T10:50:29.182Z,6.10
2019-04-28T10:53:09.661Z,6.67
2019-04-28T10:55:50.352Z,6.40
2019-04-28T10:58:31.141Z,7.67
2019-04-28T11:01:11.869Z,8.60
2019-04-28T11:03:54.349Z,6.80
2019-04-28T11:06:35.290Z,7.37
2019-04-28T11:09:30.399Z,7.40
2019-04-28T11:12:06.440Z,7.97
2019-04-28T11:14:47.346Z,6.93
2019-04-28T11:17:27.888Z,6.30
2019-04-28T11:20:08.455Z,6.03
2019-04-28T11:22:49.029Z,6.00
2019-04-28T11:25:29.632Z,5.40
2019-04-28T11:28:10.361Z,7.13
2019-04-28T11:30:51.342Z,7.47
2019-04-28T11:33:37.020Z,7.17
2019-04-28T11:36:19.810Z,6.50
2019-04-28T11:39:00.816Z,6.23
2019-04-28T11:41:41.487Z,7.03
2019-04-28T11:44:22.461Z,5.80
2019-04-28T11:47:04.552Z,6.97
2019-04-28T11:49:45.446Z,5.90
2019-04-28T11:52:26.018Z,5.27
2019-04-28T11:55:06.762Z,9.70
2019-04-28T11:57:47.114Z,4.90
2019-04-28T12:00:29.528Z,4.70
2019-04-28T12:03:10.403Z,5.17
2019-04-28T12:05:51.168Z,4.37
2019-04-28T12:08:31.840Z,4.40
2019-04-28T12:11:14.094Z,4.47
2019-04-28T12:13:59.188Z,4.50
2019-04-28T12:16:44.768Z,3.80
2019-04-28T12:19:29.898Z,3.93
2019-04-28T12:22:10.054Z,4.63
2019-04-28T12:24:50.408Z,4.77
2019-04-28T12:27:31.433Z,4.20
2019-04-28T12:30:12.796Z,4.07
2019-04-28T12:32:53.914Z,4.60
2019-04-28T12:35:46.780Z,5.70
2019-04-28T12:38:17.048Z,4.70
2019-04-28T12:40:57.905Z,4.53
2019-04-28T12:43:38.476Z,3.90
2019-04-28T12:46:18.890Z,4.33
2019-04-28T12:49:04.017Z,3.90
2019-04-28T12:51:44.260Z,4.43
2019-04-28T12:54:26.312Z,4.60
2019-04-28T12:57:07.190Z,3.70
2019-04-28T12:59:54.890Z,4.93
2019-04-28T13:03:01.867Z,4.70
2019-04-28T13:08:48.302Z,4.80
2019-04-28T13:11:36.120Z,4.83
2019-04-28T13:14:23.881Z,4.00
2019-04-28T13:17:11.653Z,4.60
2019-04-28T13:19:59.424Z,4.60
2019-04-28T13:22:47.204Z,4.40
2019-04-28T13:25:34.944Z,4.97
2019-04-28T13:28:22.732Z,4.83
2019-04-28T13:31:10.481Z,4.73
2019-04-28T13:36:52.908Z,4.83
2019-04-28T13:42:49.195Z,4.73
2019-04-28T13:45:36.944Z,4.53
2019-04-28T13:48:25.041Z,5.43
2019-04-28T13:51:12.807Z,5.30
2019-04-28T13:56:59.049Z,4.47
2019-04-28T14:05:55.745Z,3.80
2019-04-28T14:08:43.565Z,3.83
2019-04-28T14:11:23.941Z,3.53
2019-04-28T14:14:04.593Z,2.97
2019-04-28T14:16:45.124Z,3.07
2019-04-28T14:19:25.775Z,3.13
2019-04-28T14:22:06.551Z,3.10
2019-04-28T14:24:47.357Z,2.60
2019-04-28T14:27:28.322Z,2.70
2019-04-28T14:30:08.601Z,2.10
2019-04-28T14:32:49.549Z,2.40
2019-04-28T14:35:30.188Z,2.40
2019-04-28T14:38:10.696Z,2.10
2019-04-28T14:40:51.086Z,2.00
2019-04-28T14:43:31.897Z,2.23
2019-04-28T14:46:12.665Z,2.40
2019-04-28T14:48:53.429Z,1.93
2019-04-28T14:51:34.400Z,2.60
2019-04-28T14:54:15.329Z,2.10
2019-04-28T14:56:56.195Z,2.10
2019-04-28T14:59:36.977Z,2.20
2019-04-28T15:02:19.333Z,2.20
2019-04-28T15:05:02.039Z,2.57
2019-04-28T15:07:44.577Z,2.00
2019-04-28T15:13:20.673Z,2.00
2019-04-28T15:16:01.376Z,1.93
2019-04-28T15:18:42.053Z,1.90
2019-04-28T15:21:22.652Z,2.10
2019-04-28T15:24:03.525Z,1.47
2019-04-28T15:26:44.269Z,1.83
2019-04-28T15:29:25.412Z,1.80
2019-04-28T15:32:06.251Z,2.20
2019-04-28T15:34:47.105Z,2.30
2019-04-28T15:37:27.458Z,2.10
2019-04-28T15:40:08.120Z,1.90
2019-04-28T15:42:49.104Z,1.80
2019-04-28T15:45:29.797Z,1.50
2019-04-28T15:48:10.314Z,1.90
2019-04-28T15:50:51.212Z,2.50
2019-04-28T15:56:45.645Z,2.40
2019-04-28T15:59:26.730Z,2.30
2019-04-28T16:02:07.629Z,1.97
2019-04-28T16:04:48.336Z,2.20
2019-04-28T16:07:29.252Z,2.10
2019-04-28T16:10:10.124Z,2.37
2019-04-28T16:12:50.543Z,2.57
2019-04-28T16:15:31.254Z,2.47
2019-04-28T16:18:12.004Z,2.27
2019-04-28T16:20:52.813Z,2.10
2019-04-28T16:23:33.906Z,2.40
2019-04-28T16:26:14.270Z,2.40
2019-04-28T16:28:55.136Z,2.30
2019-04-28T16:31:35.704Z,2.67
2019-04-28T16:34:16.450Z,2.90
2019-04-28T16:36:56.776Z,2.87
2019-04-28T16:39:37.409Z,2.60
2019-04-28T16:42:18.076Z,2.37
2019-04-28T16:44:58.627Z,2.63
2019-04-28T16:47:39.150Z,2.77
2019-04-28T16:50:19.993Z,2.30
2019-04-28T16:53:00.923Z,2.70
2019-04-28T16:55:46.177Z,2.80
2019-04-28T16:58:46.051Z,2.70
2019-04-28T17:01:45.745Z,3.00
2019-04-28T17:04:26.835Z,2.60
2019-04-28T17:07:07.153Z,2.80
2019-04-28T17:09:48.188Z,2.60
2019-04-28T17:12:29.084Z,2.40
2019-04-28T17:15:09.318Z,2.20
2019-04-28T17:17:49.657Z,2.97
2019-04-28T17:20:32.737Z,2.30
2019-04-28T17:23:13.788Z,2.33
2019-04-28T17:25:54.445Z,2.53
2019-04-28T17:28:35.390Z,2.63
2019-04-28T17:31:16.233Z,2.37
2019-04-28T17:33:56.730Z,2.57
2019-04-28T17:36:37.712Z,2.63
2019-04-28T17:39:22.964Z,2.53
2019-04-28T17:42:04.680Z,2.17
2019-04-28T17:44:45.556Z,2.37
2019-04-28T17:47:26.109Z,2.30
2019-04-28T17:50:07.242Z,2.00
2019-04-28T17:52:48.398Z,1.90
2019-04-28T17:55:29.049Z,2.03
2019-04-28T17:58:09.972Z,1.93
2019-04-28T18:00:54.953Z,2.10
2019-04-28T18:03:40.158Z,2.37
2019-04-28T18:06:22.170Z,2.20
2019-04-28T18:09:02.428Z,2.50
2019-04-28T18:11:42.924Z,2.47
2019-04-28T18:14:23.383Z,2.40
2019-04-28T18:20:07.448Z,2.40
2019-04-28T18:22:48.228Z,2.47
2019-04-28T18:25:29.164Z,2.80
2019-04-28T18:28:09.948Z,2.60
2019-04-28T18:34:04.436Z,2.33
2019-04-28T18:39:58.073Z,3.20
2019-04-28T18:42:57.453Z,2.83
2019-04-28T18:45:37.964Z,3.00
2019-04-28T18:48:18.736Z,3.30
2019-04-28T18:50:59.681Z,3.00
2019-04-28T18:53:40.373Z,3.20
2019-04-28T18:56:21.102Z,3.17
2019-04-28T18:59:01.928Z,3.10
2019-04-28T19:01:44.225Z,3.70
2019-04-28T19:04:22.966Z,3.20
2019-04-28T19:10:40.207Z,3.60
2019-04-28T19:13:22.832Z,3.80
2019-04-28T19:16:07.377Z,4.13
2019-04-28T19:18:52.083Z,3.90
2019-04-28T19:21:33.146Z,3.80
2019-04-28T19:24:14.036Z,3.70
2019-04-28T19:26:55.048Z,3.40
2019-04-28T19:29:35.633Z,3.40
2019-04-28T19:32:16.498Z,3.07
2019-04-28T19:34:57.341Z,3.10
2019-04-28T19:37:37.833Z,3.50
2019-04-28T19:40:18.589Z,3.23
2019-04-28T19:42:59.260Z,3.63
2019-04-28T19:45:42.072Z,3.47
2019-04-28T19:48:22.738Z,3.10
2019-04-28T19:50:51.182Z,3.30
2019-04-28T19:53:38.950Z,3.40
2019-04-28T19:56:45.949Z,3.50
2019-04-28T20:05:23.392Z,3.40
2019-04-28T20:08:11.135Z,3.40
2019-04-28T20:10:58.889Z,3.57
2019-04-28T20:14:07.350Z,4.00
2019-04-28T20:17:02.237Z,3.67
2019-04-28T20:19:43.410Z,3.87
2019-04-28T20:22:23.977Z,3.77
2019-04-28T20:25:04.681Z,3.93
2019-04-28T20:27:45.488Z,3.67
2019-04-28T20:30:26.257Z,3.53
2019-04-28T20:33:07.841Z,3.70
2019-04-28T20:35:50.508Z,3.60
2019-04-28T20:38:32.152Z,4.00
2019-04-28T20:41:14.562Z,4.60
2019-04-28T20:43:56.401Z,4.10
2019-04-28T20:46:37.213Z,4.20
2019-04-28T20:49:17.753Z,4.10
2019-04-28T20:51:58.684Z,4.10
2019-04-28T20:54:39.499Z,4.03
2019-04-28T20:57:20.393Z,4.40
2019-04-28T21:00:00.916Z,4.60
2019-04-28T21:02:41.325Z,4.37
2019-04-28T21:05:21.997Z,4.70
2019-04-28T21:08:02.456Z,4.57
2019-04-28T21:10:43.234Z,4.53
2019-04-28T21:13:23.917Z,4.80
2019-04-28T21:15:52.314Z,5.47
2019-04-28T21:18:40.083Z,5.20
2019-04-28T21:21:27.841Z,5.43
2019-04-28T21:24:17.098Z,5.33
2019-04-28T21:27:05.128Z,5.27
2019-04-28T21:29:52.970Z,5.60
2019-04-28T21:32:40.715Z,5.80
2019-04-28T21:35:28.460Z,5.63
2019-04-28T21:38:16.260Z,5.97
2019-04-28T21:41:04.001Z,6.50
2019-04-28T21:52:35.925Z,6.43
2019-04-28T21:55:23.684Z,6.47
2019-04-28T21:58:11.420Z,6.80
2019-04-28T22:03:54.436Z,6.40
2019-04-28T22:06:42.193Z,7.10
2019-04-28T22:09:23.056Z,7.83
2019-04-28T22:12:03.524Z,7.07
2019-04-28T22:14:44.417Z,6.93
2019-04-28T22:17:25.168Z,7.00
2019-04-28T22:20:05.908Z,7.10
2019-04-28T22:22:46.460Z,7.07
2019-04-28T22:25:27.393Z,6.73
2019-04-28T22:28:08.313Z,7.30
2019-04-28T22:30:36.718Z,7.17
2019-04-28T22:33:24.461Z,7.87
2019-04-28T22:36:12.204Z,7.50
2019-04-28T22:38:59.976Z,7.80
2019-04-28T22:41:47.725Z,7.93
2019-04-28T22:44:35.482Z,7.73
2019-04-28T22:47:23.221Z,7.47
2019-04-28T22:50:30.484Z,7.83
2019-04-28T22:56:35.733Z,8.37
2019-04-28T22:59:42.661Z,8.43
2019-04-28T23:05:25.852Z,7.93
2019-04-28T23:08:13.593Z,8.57
2019-04-28T23:11:01.739Z,8.57
2019-04-28T23:13:49.492Z,8.73
2019-04-28T23:16:37.252Z,8.57
2019-04-28T23:22:47.183Z,8.37
2019-04-28T23:25:31.857Z,8.60
2019-04-28T23:28:12.449Z,9.53
2019-04-28T23:30:52.884Z,9.43
2019-04-28T23:33:33.601Z,9.17
2019-04-28T23:36:14.704Z,9.60
2019-04-28T23:38:55.014Z,9.53
2019-04-28T23:41:39.915Z,9.33
2019-04-28T23:44:20.587Z,9.13
2019-04-28T23:47:02.320Z,9.43
2019-04-28T23:49:43.188Z,9.83
2019-04-28T23:52:25.400Z,10.03
2019-04-28T23:55:08.003Z,8.97
2019-04-28T23:57:48.309Z,9.13
